sensor_id;sensor_type;location;lat;lon;timestamp;P1;durP1;ratioP1;P2;durP2;ratioP2
24751;SDS011;27246;52.376;4.628;2024-01-06T00:00:40;9.13;;;3.67;;
24751;SDS011;27246;52.376;4.628;2024-01-06T00:05:42;5.43;;;3.67;;
24751;SDS011;27246;52.376;4.628;2024-01-06T00:10:44;6.93;;;3.50;;
24751;SDS011;27246;52.376;4.628;2024-01-06T00:15:46;4.43;;;3.63;;
24751;SDS011;27246;52.376;4.628;2024-01-06T00:20:48;6.10;;;3.13;;
24751;SDS011;27246;52.376;4.628;2024-01-06T00:25:50;3.08;;;2.78;;
24751;SDS011;27246;52.376;4.628;2024-01-06T00:30:51;4.00;;;2.65;;
24751;SDS011;27246;52.376;4.628;2024-01-06T00:35:53;2.28;;;2.08;;
24751;SDS011;27246;52.376;4.628;2024-01-06T00:40:57;3.33;;;2.00;;
24751;SDS011;27246;52.376;4.628;2024-01-06T00:45:58;2.28;;;1.33;;
24751;SDS011;27246;52.376;4.628;2024-01-06T00:51:00;3.65;;;1.85;;
24751;SDS011;27246;52.376;4.628;2024-01-06T00:56:02;4.18;;;1.30;;
24751;SDS011;27246;52.376;4.628;2024-01-06T01:01:04;2.95;;;1.48;;
24751;SDS011;27246;52.376;4.628;2024-01-06T01:06:06;2.45;;;1.52;;
24751;SDS011;27246;52.376;4.628;2024-01-06T01:11:08;5.03;;;2.00;;
24751;SDS011;27246;52.376;4.628;2024-01-06T01:16:10;2.08;;;1.60;;
24751;SDS011;27246;52.376;4.628;2024-01-06T01:21:12;3.50;;;1.70;;
24751;SDS011;27246;52.376;4.628;2024-01-06T01:26:13;2.80;;;1.48;;
24751;SDS011;27246;52.376;4.628;2024-01-06T01:31:15;2.05;;;1.50;;
24751;SDS011;27246;52.376;4.628;2024-01-06T01:36:17;2.67;;;1.60;;
24751;SDS011;27246;52.376;4.628;2024-01-06T01:41:19;3.67;;;2.03;;
24751;SDS011;27246;52.376;4.628;2024-01-06T01:46:21;1.92;;;1.55;;
24751;SDS011;27246;52.376;4.628;2024-01-06T01:51:24;2.70;;;2.00;;
24751;SDS011;27246;52.376;4.628;2024-01-06T01:56:30;3.05;;;1.98;;
24751;SDS011;27246;52.376;4.628;2024-01-06T02:01:35;4.40;;;2.30;;
24751;SDS011;27246;52.376;4.628;2024-01-06T02:06:38;4.55;;;2.30;;
24751;SDS011;27246;52.376;4.628;2024-01-06T02:11:40;3.22;;;2.60;;
24751;SDS011;27246;52.376;4.628;2024-01-06T02:16:41;4.95;;;2.72;;
24751;SDS011;27246;52.376;4.628;2024-01-06T02:21:43;4.22;;;2.70;;
24751;SDS011;27246;52.376;4.628;2024-01-06T02:26:49;2.47;;;2.00;;
24751;SDS011;27246;52.376;4.628;2024-01-06T02:31:52;2.47;;;1.50;;
24751;SDS011;27246;52.376;4.628;2024-01-06T02:36:53;4.03;;;2.05;;
24751;SDS011;27246;52.376;4.628;2024-01-06T02:41:55;4.32;;;2.50;;
24751;SDS011;27246;52.376;4.628;2024-01-06T02:46:57;4.22;;;2.05;;
24751;SDS011;27246;52.376;4.628;2024-01-06T02:51:59;2.22;;;2.08;;
24751;SDS011;27246;52.376;4.628;2024-01-06T02:57:00;2.58;;;2.38;;
24751;SDS011;27246;52.376;4.628;2024-01-06T03:02:02;3.53;;;2.58;;
24751;SDS011;27246;52.376;4.628;2024-01-06T03:07:04;2.20;;;1.77;;
24751;SDS011;27246;52.376;4.628;2024-01-06T03:12:06;2.72;;;1.98;;
24751;SDS011;27246;52.376;4.628;2024-01-06T03:17:09;4.53;;;2.83;;
24751;SDS011;27246;52.376;4.628;2024-01-06T03:22:14;2.72;;;2.50;;
24751;SDS011;27246;52.376;4.628;2024-01-06T03:27:16;3.47;;;2.20;;
24751;SDS011;27246;52.376;4.628;2024-01-06T03:32:18;2.22;;;2.03;;
24751;SDS011;27246;52.376;4.628;2024-01-06T03:37:19;3.45;;;1.90;;
24751;SDS011;27246;52.376;4.628;2024-01-06T03:42:23;2.30;;;1.70;;
24751;SDS011;27246;52.376;4.628;2024-01-06T03:47:25;3.63;;;1.88;;
24751;SDS011;27246;52.376;4.628;2024-01-06T03:52:27;4.70;;;2.08;;
24751;SDS011;27246;52.376;4.628;2024-01-06T03:57:29;2.92;;;2.00;;
24751;SDS011;27246;52.376;4.628;2024-01-06T04:02:30;4.28;;;1.95;;
24751;SDS011;27246;52.376;4.628;2024-01-06T04:07:33;2.97;;;2.15;;
24751;SDS011;27246;52.376;4.628;2024-01-06T04:12:34;4.60;;;1.55;;
24751;SDS011;27246;52.376;4.628;2024-01-06T04:17:36;2.92;;;1.75;;
24751;SDS011;27246;52.376;4.628;2024-01-06T04:22:38;2.25;;;1.80;;
24751;SDS011;27246;52.376;4.628;2024-01-06T04:27:40;1.50;;;1.20;;
24751;SDS011;27246;52.376;4.628;2024-01-06T04:32:42;4.18;;;1.65;;
24751;SDS011;27246;52.376;4.628;2024-01-06T04:37:45;2.78;;;1.30;;
24751;SDS011;27246;52.376;4.628;2024-01-06T04:42:47;3.88;;;1.77;;
24751;SDS011;27246;52.376;4.628;2024-01-06T04:47:51;4.13;;;1.20;;
24751;SDS011;27246;52.376;4.628;2024-01-06T04:52:54;3.35;;;1.33;;
24751;SDS011;27246;52.376;4.628;2024-01-06T04:57:55;3.42;;;1.85;;
24751;SDS011;27246;52.376;4.628;2024-01-06T05:02:57;1.38;;;1.27;;
24751;SDS011;27246;52.376;4.628;2024-01-06T05:07:59;2.60;;;1.58;;
24751;SDS011;27246;52.376;4.628;2024-01-06T05:13:01;4.10;;;2.00;;
24751;SDS011;27246;52.376;4.628;2024-01-06T05:18:03;1.67;;;1.52;;
24751;SDS011;27246;52.376;4.628;2024-01-06T05:23:05;3.60;;;1.92;;
24751;SDS011;27246;52.376;4.628;2024-01-06T05:28:07;3.53;;;1.77;;
24751;SDS011;27246;52.376;4.628;2024-01-06T05:33:10;3.97;;;1.80;;
24751;SDS011;27246;52.376;4.628;2024-01-06T05:38:15;4.82;;;2.25;;
24751;SDS011;27246;52.376;4.628;2024-01-06T05:43:18;2.15;;;1.95;;
24751;SDS011;27246;52.376;4.628;2024-01-06T05:48:20;4.97;;;2.20;;
24751;SDS011;27246;52.376;4.628;2024-01-06T05:53:22;4.75;;;2.30;;
24751;SDS011;27246;52.376;4.628;2024-01-06T05:58:24;4.32;;;2.33;;
24751;SDS011;27246;52.376;4.628;2024-01-06T06:03:25;3.58;;;2.40;;
24751;SDS011;27246;52.376;4.628;2024-01-06T06:08:27;5.85;;;2.63;;
24751;SDS011;27246;52.376;4.628;2024-01-06T06:13:29;2.88;;;2.13;;
24751;SDS011;27246;52.376;4.628;2024-01-06T06:18:31;4.05;;;2.03;;
24751;SDS011;27246;52.376;4.628;2024-01-06T06:23:37;3.33;;;2.10;;
24751;SDS011;27246;52.376;4.628;2024-01-06T06:28:39;4.72;;;2.75;;
24751;SDS011;27246;52.376;4.628;2024-01-06T06:33:41;2.47;;;1.75;;
24751;SDS011;27246;52.376;4.628;2024-01-06T06:38:43;2.08;;;1.83;;
24751;SDS011;27246;52.376;4.628;2024-01-06T06:43:45;2.55;;;1.73;;
24751;SDS011;27246;52.376;4.628;2024-01-06T06:48:47;2.60;;;2.22;;
24751;SDS011;27246;52.376;4.628;2024-01-06T06:53:49;4.50;;;2.47;;
24751;SDS011;27246;52.376;4.628;2024-01-06T06:58:51;2.97;;;2.30;;
24751;SDS011;27246;52.376;4.628;2024-01-06T07:03:54;2.70;;;2.05;;
24751;SDS011;27246;52.376;4.628;2024-01-06T07:08:56;2.38;;;1.90;;
24751;SDS011;27246;52.376;4.628;2024-01-06T07:13:58;4.40;;;2.08;;
24751;SDS011;27246;52.376;4.628;2024-01-06T07:18:59;2.65;;;1.90;;
24751;SDS011;27246;52.376;4.628;2024-01-06T07:24:01;3.60;;;2.25;;
24751;SDS011;27246;52.376;4.628;2024-01-06T07:29:03;2.70;;;1.67;;
24751;SDS011;27246;52.376;4.628;2024-01-06T07:34:06;3.22;;;2.10;;
24751;SDS011;27246;52.376;4.628;2024-01-06T07:39:08;3.53;;;2.15;;
24751;SDS011;27246;52.376;4.628;2024-01-06T07:44:13;5.32;;;2.58;;
24751;SDS011;27246;52.376;4.628;2024-01-06T07:49:18;3.67;;;2.00;;
24751;SDS011;27246;52.376;4.628;2024-01-06T07:54:21;3.08;;;2.20;;
24751;SDS011;27246;52.376;4.628;2024-01-06T07:59:23;2.88;;;2.10;;
24751;SDS011;27246;52.376;4.628;2024-01-06T08:04:25;3.60;;;2.10;;
24751;SDS011;27246;52.376;4.628;2024-01-06T08:09:27;2.55;;;2.30;;
24751;SDS011;27246;52.376;4.628;2024-01-06T08:14:29;5.45;;;2.50;;
24751;SDS011;27246;52.376;4.628;2024-01-06T08:19:31;5.00;;;2.30;;
24751;SDS011;27246;52.376;4.628;2024-01-06T08:24:34;2.45;;;2.15;;
24751;SDS011;27246;52.376;4.628;2024-01-06T08:29:37;5.72;;;2.85;;
24751;SDS011;27246;52.376;4.628;2024-01-06T08:34:39;2.80;;;2.30;;
24751;SDS011;27246;52.376;4.628;2024-01-06T08:39:44;3.25;;;2.30;;
24751;SDS011;27246;52.376;4.628;2024-01-06T08:44:46;5.78;;;2.28;;
24751;SDS011;27246;52.376;4.628;2024-01-06T08:49:48;3.85;;;2.30;;
24751;SDS011;27246;52.376;4.628;2024-01-06T08:54:50;4.10;;;2.05;;
24751;SDS011;27246;52.376;4.628;2024-01-06T08:59:52;2.60;;;1.80;;
24751;SDS011;27246;52.376;4.628;2024-01-06T09:04:54;4.38;;;1.80;;
24751;SDS011;27246;52.376;4.628;2024-01-06T09:09:56;2.65;;;1.70;;
24751;SDS011;27246;52.376;4.628;2024-01-06T09:14:58;3.22;;;1.23;;
24751;SDS011;27246;52.376;4.628;2024-01-06T09:20:00;1.88;;;1.08;;
24751;SDS011;27246;52.376;4.628;2024-01-06T09:25:03;2.50;;;1.50;;
24751;SDS011;27246;52.376;4.628;2024-01-06T09:30:05;2.88;;;1.60;;
24751;SDS011;27246;52.376;4.628;2024-01-06T09:35:08;2.22;;;1.60;;
24751;SDS011;27246;52.376;4.628;2024-01-06T09:40:12;3.15;;;2.00;;
24751;SDS011;27246;52.376;4.628;2024-01-06T09:45:16;5.18;;;2.20;;
24751;SDS011;27246;52.376;4.628;2024-01-06T09:50:28;3.95;;;1.95;;
24751;SDS011;27246;52.376;4.628;2024-01-06T09:55:30;3.40;;;2.20;;
24751;SDS011;27246;52.376;4.628;2024-01-06T10:00:36;2.20;;;2.00;;
24751;SDS011;27246;52.376;4.628;2024-01-06T10:05:39;2.30;;;2.08;;
24751;SDS011;27246;52.376;4.628;2024-01-06T10:10:43;4.53;;;2.63;;
24751;SDS011;27246;52.376;4.628;2024-01-06T10:15:53;2.85;;;2.40;;
24751;SDS011;27246;52.376;4.628;2024-01-06T10:21:00;3.05;;;2.58;;
24751;SDS011;27246;52.376;4.628;2024-01-06T10:26:08;2.70;;;2.50;;
24751;SDS011;27246;52.376;4.628;2024-01-06T10:31:14;3.50;;;2.80;;
24751;SDS011;27246;52.376;4.628;2024-01-06T10:36:16;3.65;;;2.50;;
24751;SDS011;27246;52.376;4.628;2024-01-06T10:41:22;3.88;;;2.63;;
24751;SDS011;27246;52.376;4.628;2024-01-06T10:46:25;4.80;;;2.50;;
24751;SDS011;27246;52.376;4.628;2024-01-06T10:51:29;4.38;;;1.88;;
24751;SDS011;27246;52.376;4.628;2024-01-06T10:56:36;4.30;;;2.10;;
24751;SDS011;27246;52.376;4.628;2024-01-06T11:01:39;1.75;;;1.63;;
24751;SDS011;27246;52.376;4.628;2024-01-06T11:06:45;3.47;;;1.60;;
24751;SDS011;27246;52.376;4.628;2024-01-06T11:11:47;3.13;;;1.65;;
24751;SDS011;27246;52.376;4.628;2024-01-06T11:16:50;1.50;;;1.20;;
24751;SDS011;27246;52.376;4.628;2024-01-06T11:27:21;2.47;;;1.52;;
24751;SDS011;27246;52.376;4.628;2024-01-06T11:32:29;2.30;;;1.85;;
24751;SDS011;27246;52.376;4.628;2024-01-06T11:37:36;2.10;;;1.83;;
24751;SDS011;27246;52.376;4.628;2024-01-06T11:42:44;1.80;;;1.50;;
24751;SDS011;27246;52.376;4.628;2024-01-06T11:47:49;1.60;;;1.48;;
24751;SDS011;27246;52.376;4.628;2024-01-06T11:53:04;2.50;;;1.77;;
24751;SDS011;27246;52.376;4.628;2024-01-06T11:58:16;3.15;;;1.63;;
24751;SDS011;27246;52.376;4.628;2024-01-06T12:03:18;1.48;;;1.08;;
24751;SDS011;27246;52.376;4.628;2024-01-06T12:08:20;2.25;;;1.30;;
24751;SDS011;27246;52.376;4.628;2024-01-06T12:13:22;4.82;;;2.40;;
24751;SDS011;27246;52.376;4.628;2024-01-06T12:18:24;2.65;;;1.85;;
24751;SDS011;27246;52.376;4.628;2024-01-06T12:23:27;3.15;;;1.40;;
24751;SDS011;27246;52.376;4.628;2024-01-06T12:28:29;2.65;;;1.65;;
24751;SDS011;27246;52.376;4.628;2024-01-06T12:33:31;1.50;;;1.15;;
24751;SDS011;27246;52.376;4.628;2024-01-06T12:38:37;3.47;;;1.55;;
24751;SDS011;27246;52.376;4.628;2024-01-06T12:43:39;2.83;;;1.90;;
24751;SDS011;27246;52.376;4.628;2024-01-06T12:48:41;3.92;;;2.13;;
24751;SDS011;27246;52.376;4.628;2024-01-06T12:53:43;3.40;;;2.00;;
24751;SDS011;27246;52.376;4.628;2024-01-06T12:58:45;3.42;;;1.70;;
24751;SDS011;27246;52.376;4.628;2024-01-06T13:03:48;5.03;;;1.80;;
24751;SDS011;27246;52.376;4.628;2024-01-06T13:08:49;1.88;;;1.70;;
24751;SDS011;27246;52.376;4.628;2024-01-06T13:13:51;4.53;;;2.85;;
24751;SDS011;27246;52.376;4.628;2024-01-06T13:18:53;3.42;;;2.10;;
24751;SDS011;27246;52.376;4.628;2024-01-06T13:23:56;3.13;;;1.70;;
24751;SDS011;27246;52.376;4.628;2024-01-06T13:29:03;2.40;;;1.52;;
24751;SDS011;27246;52.376;4.628;2024-01-06T13:34:06;2.10;;;1.65;;
24751;SDS011;27246;52.376;4.628;2024-01-06T13:39:09;3.20;;;2.65;;
24751;SDS011;27246;52.376;4.628;2024-01-06T13:44:18;3.50;;;1.67;;
24751;SDS011;27246;52.376;4.628;2024-01-06T13:49:21;2.65;;;1.70;;
24751;SDS011;27246;52.376;4.628;2024-01-06T13:54:25;3.65;;;1.95;;
24751;SDS011;27246;52.376;4.628;2024-01-06T13:59:27;1.95;;;1.73;;
24751;SDS011;27246;52.376;4.628;2024-01-06T14:04:29;2.65;;;1.38;;
24751;SDS011;27246;52.376;4.628;2024-01-06T14:09:31;3.42;;;1.80;;
24751;SDS011;27246;52.376;4.628;2024-01-06T14:14:32;4.18;;;2.30;;
24751;SDS011;27246;52.376;4.628;2024-01-06T14:19:34;3.17;;;2.50;;
24751;SDS011;27246;52.376;4.628;2024-01-06T14:24:36;5.50;;;4.18;;
24751;SDS011;27246;52.376;4.628;2024-01-06T14:29:40;3.00;;;1.48;;
24751;SDS011;27246;52.376;4.628;2024-01-06T14:34:41;3.03;;;1.77;;
24751;SDS011;27246;52.376;4.628;2024-01-06T14:39:43;2.05;;;1.35;;
24751;SDS011;27246;52.376;4.628;2024-01-06T14:44:45;3.53;;;1.80;;
24751;SDS011;27246;52.376;4.628;2024-01-06T14:49:47;2.08;;;1.35;;
24751;SDS011;27246;52.376;4.628;2024-01-06T14:54:49;3.33;;;1.98;;
24751;SDS011;27246;52.376;4.628;2024-01-06T14:59:51;2.17;;;1.67;;
24751;SDS011;27246;52.376;4.628;2024-01-06T15:04:53;2.67;;;1.40;;
24751;SDS011;27246;52.376;4.628;2024-01-06T15:09:55;2.92;;;1.80;;
24751;SDS011;27246;52.376;4.628;2024-01-06T15:15:00;4.38;;;2.00;;
24751;SDS011;27246;52.376;4.628;2024-01-06T15:20:02;3.72;;;2.28;;
24751;SDS011;27246;52.376;4.628;2024-01-06T15:25:05;3.30;;;2.13;;
24751;SDS011;27246;52.376;4.628;2024-01-06T15:30:09;4.82;;;2.60;;
24751;SDS011;27246;52.376;4.628;2024-01-06T15:35:11;8.15;;;3.53;;
24751;SDS011;27246;52.376;4.628;2024-01-06T15:40:13;2.88;;;2.00;;
24751;SDS011;27246;52.376;4.628;2024-01-06T15:45:15;4.45;;;1.95;;
24751;SDS011;27246;52.376;4.628;2024-01-06T15:50:17;3.08;;;1.70;;
24751;SDS011;27246;52.376;4.628;2024-01-06T15:55:19;2.53;;;2.03;;
24751;SDS011;27246;52.376;4.628;2024-01-06T16:00:20;2.63;;;2.25;;
24751;SDS011;27246;52.376;4.628;2024-01-06T16:05:23;2.90;;;2.00;;
24751;SDS011;27246;52.376;4.628;2024-01-06T16:10:27;4.15;;;2.40;;
24751;SDS011;27246;52.376;4.628;2024-01-06T16:15:29;3.88;;;2.58;;
24751;SDS011;27246;52.376;4.628;2024-01-06T16:20:34;4.80;;;2.60;;
24751;SDS011;27246;52.376;4.628;2024-01-06T16:25:42;3.28;;;2.63;;
24751;SDS011;27246;52.376;4.628;2024-01-06T16:30:44;4.63;;;3.45;;
24751;SDS011;27246;52.376;4.628;2024-01-06T16:35:46;6.10;;;3.38;;
24751;SDS011;27246;52.376;4.628;2024-01-06T16:40:56;4.53;;;3.25;;
24751;SDS011;27246;52.376;4.628;2024-01-06T16:45:58;5.10;;;3.88;;
24751;SDS011;27246;52.376;4.628;2024-01-06T16:51:10;6.85;;;4.28;;
24751;SDS011;27246;52.376;4.628;2024-01-06T16:56:21;6.22;;;5.05;;
24751;SDS011;27246;52.376;4.628;2024-01-06T17:01:23;6.53;;;4.93;;
24751;SDS011;27246;52.376;4.628;2024-01-06T17:06:25;7.43;;;5.32;;
24751;SDS011;27246;52.376;4.628;2024-01-06T17:11:28;6.50;;;4.43;;
24751;SDS011;27246;52.376;4.628;2024-01-06T17:16:29;5.60;;;4.57;;
24751;SDS011;27246;52.376;4.628;2024-01-06T17:21:32;11.57;;;7.18;;
24751;SDS011;27246;52.376;4.628;2024-01-06T17:26:33;7.20;;;4.70;;
24751;SDS011;27246;52.376;4.628;2024-01-06T17:31:35;7.82;;;5.30;;
24751;SDS011;27246;52.376;4.628;2024-01-06T17:36:40;5.68;;;4.90;;
24751;SDS011;27246;52.376;4.628;2024-01-06T17:41:42;6.15;;;5.55;;
24751;SDS011;27246;52.376;4.628;2024-01-06T17:46:57;7.40;;;4.93;;
24751;SDS011;27246;52.376;4.628;2024-01-06T17:51:59;12.18;;;7.45;;
24751;SDS011;27246;52.376;4.628;2024-01-06T17:57:01;8.18;;;6.97;;
24751;SDS011;27246;52.376;4.628;2024-01-06T18:02:05;8.85;;;6.10;;
24751;SDS011;27246;52.376;4.628;2024-01-06T18:07:07;9.18;;;7.20;;
24751;SDS011;27246;52.376;4.628;2024-01-06T18:12:09;7.18;;;5.65;;
24751;SDS011;27246;52.376;4.628;2024-01-06T18:17:11;6.47;;;5.28;;
24751;SDS011;27246;52.376;4.628;2024-01-06T18:22:13;8.32;;;7.13;;
24751;SDS011;27246;52.376;4.628;2024-01-06T18:27:15;9.93;;;7.20;;
24751;SDS011;27246;52.376;4.628;2024-01-06T18:32:16;8.30;;;6.18;;
24751;SDS011;27246;52.376;4.628;2024-01-06T18:37:19;6.50;;;5.68;;
24751;SDS011;27246;52.376;4.628;2024-01-06T18:42:20;7.82;;;6.55;;
24751;SDS011;27246;52.376;4.628;2024-01-06T18:47:26;6.38;;;5.18;;
24751;SDS011;27246;52.376;4.628;2024-01-06T18:52:29;6.75;;;6.00;;
24751;SDS011;27246;52.376;4.628;2024-01-06T18:57:33;7.30;;;5.70;;
24751;SDS011;27246;52.376;4.628;2024-01-06T19:02:34;8.82;;;6.57;;
24751;SDS011;27246;52.376;4.628;2024-01-06T19:07:36;9.00;;;8.10;;
24751;SDS011;27246;52.376;4.628;2024-01-06T19:12:38;5.18;;;4.53;;
24751;SDS011;27246;52.376;4.628;2024-01-06T19:17:40;6.35;;;5.05;;
24751;SDS011;27246;52.376;4.628;2024-01-06T19:22:47;7.85;;;6.07;;
24751;SDS011;27246;52.376;4.628;2024-01-06T19:28:06;7.22;;;5.65;;
24751;SDS011;27246;52.376;4.628;2024-01-06T19:33:11;5.35;;;4.00;;
24751;SDS011;27246;52.376;4.628;2024-01-06T19:38:13;6.13;;;5.20;;
24751;SDS011;27246;52.376;4.628;2024-01-06T19:43:20;6.63;;;4.95;;
24751;SDS011;27246;52.376;4.628;2024-01-06T19:48:23;5.45;;;4.15;;
24751;SDS011;27246;52.376;4.628;2024-01-06T19:53:25;5.50;;;4.53;;
24751;SDS011;27246;52.376;4.628;2024-01-06T19:58:26;7.70;;;5.57;;
24751;SDS011;27246;52.376;4.628;2024-01-06T20:03:28;5.60;;;4.85;;
24751;SDS011;27246;52.376;4.628;2024-01-06T20:08:30;7.18;;;4.68;;
24751;SDS011;27246;52.376;4.628;2024-01-06T20:13:34;5.68;;;5.10;;
24751;SDS011;27246;52.376;4.628;2024-01-06T20:18:36;7.88;;;5.35;;
24751;SDS011;27246;52.376;4.628;2024-01-06T20:23:38;7.65;;;6.38;;
24751;SDS011;27246;52.376;4.628;2024-01-06T20:28:44;6.13;;;5.53;;
24751;SDS011;27246;52.376;4.628;2024-01-06T20:33:48;5.30;;;4.68;;
24751;SDS011;27246;52.376;4.628;2024-01-06T20:38:50;6.85;;;5.65;;
24751;SDS011;27246;52.376;4.628;2024-01-06T20:43:53;4.13;;;2.67;;
24751;SDS011;27246;52.376;4.628;2024-01-06T20:48:55;4.93;;;4.28;;
24751;SDS011;27246;52.376;4.628;2024-01-06T20:53:57;5.53;;;4.50;;
24751;SDS011;27246;52.376;4.628;2024-01-06T20:58:59;4.70;;;4.30;;
24751;SDS011;27246;52.376;4.628;2024-01-06T21:04:01;6.10;;;5.18;;
24751;SDS011;27246;52.376;4.628;2024-01-06T21:09:03;6.43;;;4.97;;
24751;SDS011;27246;52.376;4.628;2024-01-06T21:14:05;5.05;;;4.55;;
24751;SDS011;27246;52.376;4.628;2024-01-06T21:19:07;4.90;;;4.10;;
24751;SDS011;27246;52.376;4.628;2024-01-06T21:24:10;4.18;;;3.78;;
24751;SDS011;27246;52.376;4.628;2024-01-06T21:29:12;5.20;;;4.18;;
24751;SDS011;27246;52.376;4.628;2024-01-06T21:34:14;5.68;;;5.15;;
24751;SDS011;27246;52.376;4.628;2024-01-06T21:39:19;5.43;;;4.93;;
24751;SDS011;27246;52.376;4.628;2024-01-06T21:44:25;5.63;;;5.00;;
24751;SDS011;27246;52.376;4.628;2024-01-06T21:49:26;5.88;;;4.50;;
24751;SDS011;27246;52.376;4.628;2024-01-06T21:54:33;5.72;;;4.57;;
24751;SDS011;27246;52.376;4.628;2024-01-06T21:59:40;5.20;;;4.70;;
24751;SDS011;27246;52.376;4.628;2024-01-06T22:04:47;5.25;;;4.72;;
24751;SDS011;27246;52.376;4.628;2024-01-06T22:09:49;6.57;;;4.47;;
24751;SDS011;27246;52.376;4.628;2024-01-06T22:14:58;8.25;;;6.60;;
24751;SDS011;27246;52.376;4.628;2024-01-06T22:20:00;5.75;;;5.13;;
24751;SDS011;27246;52.376;4.628;2024-01-06T22:25:06;5.53;;;5.03;;
24751;SDS011;27246;52.376;4.628;2024-01-06T22:30:17;5.20;;;4.70;;
24751;SDS011;27246;52.376;4.628;2024-01-06T22:35:20;6.07;;;5.43;;
24751;SDS011;27246;52.376;4.628;2024-01-06T22:40:22;5.00;;;4.60;;
24751;SDS011;27246;52.376;4.628;2024-01-06T22:45:24;5.78;;;5.18;;
24751;SDS011;27246;52.376;4.628;2024-01-06T22:50:36;6.50;;;5.87;;
24751;SDS011;27246;52.376;4.628;2024-01-06T22:55:50;6.65;;;5.78;;
24751;SDS011;27246;52.376;4.628;2024-01-06T23:00:54;6.55;;;5.95;;
24751;SDS011;27246;52.376;4.628;2024-01-06T23:06:01;5.28;;;3.03;;
24751;SDS011;27246;52.376;4.628;2024-01-06T23:11:09;5.82;;;5.22;;
24751;SDS011;27246;52.376;4.628;2024-01-06T23:16:18;6.05;;;5.45;;
24751;SDS011;27246;52.376;4.628;2024-01-06T23:21:33;6.72;;;6.13;;
24751;SDS011;27246;52.376;4.628;2024-01-06T23:26:36;6.35;;;5.75;;
24751;SDS011;27246;52.376;4.628;2024-01-06T23:31:38;6.78;;;5.55;;
24751;SDS011;27246;52.376;4.628;2024-01-06T23:36:40;6.15;;;5.43;;
24751;SDS011;27246;52.376;4.628;2024-01-06T23:41:41;6.45;;;5.20;;
24751;SDS011;27246;52.376;4.628;2024-01-06T23:46:43;6.70;;;6.00;;
24751;SDS011;27246;52.376;4.628;2024-01-06T23:51:45;9.05;;;8.15;;
24751;SDS011;27246;52.376;4.628;2024-01-06T23:56:47;6.53;;;5.93;;
